Time;durP1;ratioP1;P1;durP2;ratioP2;P2;SDS_P1;SDS_P2;PMS_P1;PMS_P2;Temp;Humidity;BMP_temperature;BMP_pressure;BME280_temperature;BME280_humidity;BME280_pressure;Samples;Min_cycle;Max_cycle;Signal;HPM_P1;HPM_P2
2022/08/05 00:01:16;;;;;;;7.00;2.40;;;23.80;97.30;;;;;;5033464;28;20029;-90
2022/08/05 00:03:42;;;;;;;5.30;2.30;;;23.80;97.30;;;;;;5033827;28;20022;-89
2022/08/05 00:06:08;;;;;;;6.65;2.70;;;23.80;97.50;;;;;;5033727;28;20028;-89
2022/08/05 00:08:35;;;;;;;5.68;2.30;;;23.70;97.50;;;;;;5036374;28;20112;-90
2022/08/05 00:11:01;;;;;;;4.47;2.20;;;23.70;97.50;;;;;;5037394;28;20028;-88
2022/08/05 00:13:34;;;;;;;7.63;2.40;;;23.70;97.50;;;;;;5038103;28;20021;-89
2022/08/05 00:15:59;;;;;;;4.88;2.00;;;23.60;97.50;;;;;;5038423;28;20052;-89
2022/08/05 00:18:25;;;;;;;9.75;2.70;;;23.60;97.60;;;;;;5038080;28;20025;-88
2022/08/05 00:20:51;;;;;;;6.30;2.50;;;23.60;97.60;;;;;;5050606;28;20026;-89
2022/08/05 00:23:19;;;;;;;5.82;2.60;;;23.60;97.70;;;;;;5030228;28;20025;-90
2022/08/05 00:25:48;;;;;;;6.65;2.55;;;23.50;97.80;;;;;;5022718;28;20030;-89
2022/08/05 00:28:17;;;;;;;6.03;2.25;;;23.50;97.90;;;;;;5037706;28;20036;-90
2022/08/05 00:30:43;;;;;;;6.47;2.47;;;23.40;97.70;;;;;;5053675;28;20044;-91
2022/08/05 00:33:08;;;;;;;6.45;2.80;;;23.40;97.70;;;;;;5040189;28;20021;-89
2022/08/05 00:35:34;;;;;;;6.80;2.58;;;23.40;97.80;;;;;;5051348;28;20021;-90
2022/08/05 00:38:00;;;;;;;7.40;2.70;;;23.40;97.90;;;;;;5060088;28;20085;-90
2022/08/05 00:40:29;;;;;;;7.28;2.63;;;23.40;97.90;;;;;;5047221;28;20033;-89
2022/08/05 00:42:56;;;;;;;5.20;2.30;;;23.30;97.80;;;;;;5038018;28;20014;-90
2022/08/05 00:45:22;;;;;;;8.20;2.95;;;23.30;97.80;;;;;;5039827;28;20021;-89
2022/08/05 00:47:50;;;;;;;5.45;2.65;;;23.30;97.90;;;;;;5038315;28;20017;-90
2022/08/05 00:50:16;;;;;;;6.60;2.47;;;23.20;97.90;;;;;;5042990;28;20104;-89
2022/08/05 00:52:41;;;;;;;5.40;2.67;;;23.20;97.90;;;;;;5035768;28;20061;-89
2022/08/05 00:55:07;;;;;;;7.22;2.60;;;23.20;97.90;;;;;;5051737;28;20041;-90
2022/08/05 00:57:33;;;;;;;6.30;2.95;;;23.10;97.80;;;;;;5037564;28;20017;-89
2022/08/05 00:59:59;;;;;;;6.22;2.60;;;23.10;97.90;;;;;;5037954;28;20036;-89
2022/08/05 01:02:25;;;;;;;8.18;2.90;;;23.10;97.90;;;;;;5039077;28;20021;-89
2022/08/05 01:04:50;;;;;;;4.13;2.47;;;23.10;98.10;;;;;;5038257;28;20021;-89
2022/08/05 01:07:16;;;;;;;6.55;3.20;;;23.00;98.20;;;;;;5038669;28;20022;-88
2022/08/05 01:09:42;;;;;;;4.93;2.47;;;23.00;98.20;;;;;;5036107;28;20042;-89
2022/08/05 01:12:13;;;;;;;7.55;2.80;;;23.00;98.20;;;;;;5035179;28;20078;-90
2022/08/05 01:15:00;;;;;;;8.02;2.88;;;22.90;98.20;;;;;;5035075;28;20021;-89
2022/08/05 01:17:32;;;;;;;7.43;2.80;;;22.90;98.10;;;;;;5024392;28;20009;-90
2022/08/05 01:20:30;;;;;;;6.60;2.97;;;22.90;98.20;;;;;;5034940;28;20033;-90
2022/08/05 01:23:26;;;;;;;7.60;3.17;;;22.90;98.30;;;;;;5047049;28;20104;-90
2022/08/05 01:26:20;;;;;;;5.30;2.60;;;22.80;98.30;;;;;;5035790;28;20091;-88
2022/08/05 01:28:55;;;;;;;4.60;2.90;;;22.80;98.40;;;;;;5023599;28;20030;-89
2022/08/05 01:31:40;;;;;;;7.97;3.83;;;22.80;98.40;;;;;;5036711;28;20052;-90
2022/08/05 01:34:24;;;;;;;7.72;3.40;;;22.80;98.50;;;;;;5035485;28;20018;-89
2022/08/05 01:37:00;;;;;;;7.10;2.60;;;22.70;98.50;;;;;;5035147;28;20029;-91
2022/08/05 01:39:27;;;;;;;7.07;2.88;;;22.70;98.60;;;;;;5036674;28;20499;-90
2022/08/05 01:41:54;;;;;;;9.27;3.13;;;22.70;98.80;;;;;;5035292;28;20048;-91
2022/08/05 01:44:20;;;;;;;7.28;3.00;;;22.60;98.80;;;;;;5035975;28;20083;-89
2022/08/05 01:46:47;;;;;;;6.75;3.40;;;22.60;98.70;;;;;;5018624;28;20034;-89
2022/08/05 01:49:17;;;;;;;6.70;3.03;;;22.60;98.70;;;;;;5037883;28;20049;-89
2022/08/05 01:51:43;;;;;;;;;;;22.60;98.80;;;;;;5052008;28;20453;-89
2022/08/05 01:54:11;;;;;;;6.22;2.78;;;22.60;99.00;;;;;;5034928;28;19956;-90
2022/08/05 01:56:40;;;;;;;5.07;2.63;;;22.60;99.00;;;;;;5036292;28;20018;-89
2022/08/05 01:59:10;;;;;;;7.07;2.88;;;22.50;98.90;;;;;;5035487;28;20080;-90
2022/08/05 02:01:42;;;;;;;8.05;3.00;;;22.50;99.00;;;;;;5051682;28;20030;-89
2022/08/05 02:04:09;;;;;;;7.45;3.40;;;22.50;99.10;;;;;;5034744;28;20025;-89
2022/08/05 02:06:36;;;;;;;9.13;3.47;;;22.50;99.20;;;;;;5040705;28;20030;-89
2022/08/05 02:09:05;;;;;;;9.07;3.30;;;22.50;99.30;;;;;;5051307;28;20029;-88
2022/08/05 02:11:46;;;;;;;8.00;3.35;;;22.50;99.40;;;;;;5036243;28;20068;-89
2022/08/05 02:14:19;;;;;;;6.63;3.13;;;22.40;99.40;;;;;;5036024;28;20026;-89
2022/08/05 02:16:53;;;;;;;6.75;3.15;;;22.40;99.50;;;;;;5040489;28;20048;-89
2022/08/05 02:19:37;;;;;;;7.88;3.10;;;22.40;99.60;;;;;;5034837;28;20030;-89
2022/08/05 02:22:10;;;;;;;8.68;3.30;;;22.40;99.70;;;;;;5035189;28;20029;-90
2022/08/05 02:24:39;;;;;;;10.60;3.33;;;22.30;99.60;;;;;;5034473;28;20444;-90
2022/08/05 02:27:09;;;;;;;7.57;3.42;;;22.30;99.80;;;;;;5040012;28;20078;-90
2022/08/05 02:29:36;;;;;;;9.55;3.80;;;22.30;99.80;;;;;;5033724;28;20040;-90
2022/08/05 02:32:05;;;;;;;7.10;3.30;;;22.30;99.80;;;;;;5035285;28;20020;-90
2022/08/05 02:34:33;;;;;;;6.45;3.20;;;22.30;99.80;;;;;;5047522;28;20458;-89
2022/08/05 02:37:03;;;;;;;11.35;3.67;;;22.20;99.80;;;;;;5028264;28;20036;-91
2022/08/05 02:39:34;;;;;;;7.03;3.20;;;22.30;99.90;;;;;;5034451;28;20064;-91
2022/08/05 02:42:02;;;;;;;8.10;3.10;;;22.20;99.90;;;;;;5034438;28;20418;-89
2022/08/05 02:44:30;;;;;;;8.00;3.40;;;22.20;99.90;;;;;;5034219;28;20029;-89
2022/08/05 02:46:57;;;;;;;6.78;3.40;;;22.20;99.90;;;;;;5030662;28;20019;-90
2022/08/05 02:49:26;;;;;;;9.38;3.83;;;22.20;99.90;;;;;;5040322;28;20500;-91
2022/08/05 02:51:53;;;;;;;10.02;3.88;;;22.20;99.90;;;;;;5049203;28;20133;-90
2022/08/05 02:54:21;;;;;;;8.75;3.35;;;22.20;99.90;;;;;;5033977;28;20134;-91
2022/08/05 02:56:47;;;;;;;8.77;3.10;;;22.10;99.90;;;;;;5034183;28;20025;-90
2022/08/05 02:59:15;;;;;;;9.50;3.55;;;22.10;99.90;;;;;;5033825;28;20477;-89
2022/08/05 03:01:43;;;;;;;10.18;3.25;;;22.10;99.90;;;;;;5034144;28;20018;-89
2022/08/05 03:04:13;;;;;;;7.63;3.10;;;22.10;99.90;;;;;;5033364;28;20056;-93
2022/08/05 03:06:41;;;;;;;8.20;3.57;;;22.10;99.90;;;;;;5025416;28;20109;-90
2022/08/05 03:09:07;;;;;;;8.18;3.30;;;22.10;99.90;;;;;;5041836;28;20354;-91
2022/08/05 03:11:33;;;;;;;6.45;3.28;;;22.10;99.90;;;;;;5050336;28;20375;-90
2022/08/05 03:13:58;;;;;;;9.50;3.60;;;22.00;99.90;;;;;;5033729;28;20037;-88
2022/08/05 03:16:24;;;;;;;10.82;3.58;;;22.00;99.90;;;;;;5038555;28;20025;-90
2022/08/05 03:18:50;;;;;;;8.63;3.88;;;22.00;99.90;;;;;;5033436;28;20029;-90
2022/08/05 03:21:16;;;;;;;9.15;3.78;;;22.00;99.90;;;;;;5034689;28;20021;-90
2022/08/05 03:23:45;;;;;;;8.77;3.50;;;22.00;99.90;;;;;;5035762;28;20572;-90
2022/08/05 03:26:11;;;;;;;8.35;3.50;;;21.90;99.90;;;;;;5053383;28;20016;-90
2022/08/05 03:28:37;;;;;;;11.73;3.70;;;21.90;99.90;;;;;;5057374;28;20005;-90
2022/08/05 03:31:03;;;;;;;7.90;3.20;;;21.90;99.90;;;;;;5036158;28;20045;-90
2022/08/05 03:33:30;;;;;;;8.15;3.28;;;21.90;99.90;;;;;;5038787;28;20544;-91
2022/08/05 03:35:57;;;;;;;9.68;3.83;;;21.90;99.90;;;;;;5033707;28;20128;-90
2022/08/05 03:38:24;;;;;;;8.18;3.50;;;21.90;99.90;;;;;;5027283;28;20022;-90
2022/08/05 03:40:54;;;;;;;8.63;3.40;;;21.90;99.90;;;;;;5026241;28;20028;-90
2022/08/05 03:43:23;;;;;;;7.85;3.28;;;21.80;99.90;;;;;;5034774;28;20083;-90
2022/08/05 03:45:49;;;;;;;9.00;3.80;;;21.80;99.90;;;;;;5050375;28;20052;-91
2022/08/05 03:48:15;;;;;;;8.77;3.03;;;21.80;99.90;;;;;;5034289;28;20021;-90
2022/08/05 03:50:53;;;;;;;8.25;3.40;;;21.80;99.90;;;;;;5035350;28;20021;-90
2022/08/05 03:53:35;;;;;;;7.78;3.42;;;21.80;99.90;;;;;;5036281;28;20050;-91
2022/08/05 03:56:25;;;;;;;7.28;3.67;;;21.80;99.90;;;;;;5037639;28;20514;-89
2022/08/05 03:58:54;;;;;;;8.13;3.60;;;21.80;99.90;;;;;;5052196;28;20132;-89
2022/08/05 04:01:21;;;;;;;6.85;3.95;;;21.70;99.90;;;;;;5034258;28;20036;-89
2022/08/05 04:03:49;;;;;;;6.72;3.25;;;21.70;99.90;;;;;;5034604;28;20045;-90
2022/08/05 04:06:17;;;;;;;7.45;3.10;;;21.70;99.90;;;;;;5045262;28;20029;-90
2022/08/05 04:08:44;;;;;;;8.23;3.17;;;21.70;99.90;;;;;;5031682;28;20041;-90
2022/08/05 04:11:10;;;;;;;7.95;3.10;;;21.70;99.90;;;;;;5032746;28;20033;-90
2022/08/05 04:13:40;;;;;;;7.80;3.13;;;21.70;99.90;;;;;;5033201;28;20021;-90
2022/08/05 04:16:08;;;;;;;7.35;3.08;;;21.70;99.90;;;;;;5033077;28;20048;-90
2022/08/05 04:18:34;;;;;;;6.78;3.10;;;21.70;99.90;;;;;;5033271;28;20033;-90
2022/08/05 04:21:00;;;;;;;8.30;3.13;;;21.60;99.90;;;;;;5049349;28;20030;-90
2022/08/05 04:23:28;;;;;;;8.23;3.22;;;21.60;99.90;;;;;;5043553;28;20088;-90
2022/08/05 04:25:54;;;;;;;8.25;2.97;;;21.60;99.90;;;;;;5039627;28;20025;-90
2022/08/05 04:28:20;;;;;;;6.97;3.05;;;21.60;99.90;;;;;;5037717;28;20029;-91
2022/08/05 04:30:47;;;;;;;8.55;3.33;;;21.60;99.90;;;;;;5028202;28;20026;-91
2022/08/05 04:33:14;;;;;;;9.52;3.40;;;21.60;99.90;;;;;;5032622;28;20033;-90
2022/08/05 04:35:42;;;;;;;10.02;3.38;;;21.60;99.90;;;;;;5032829;28;20032;-90
2022/08/05 04:38:09;;;;;;;7.43;3.00;;;21.60;99.90;;;;;;5019762;28;20018;-90
2022/08/05 04:40:40;;;;;;;9.18;3.17;;;21.50;99.90;;;;;;5032933;28;20417;-91
2022/08/05 04:43:06;;;;;;;7.15;3.03;;;21.50;99.90;;;;;;5033957;28;20048;-90
2022/08/05 04:45:34;;;;;;;8.57;3.17;;;21.50;99.90;;;;;;5032849;28;20021;-90
2022/08/05 04:48:22;;;;;;;7.30;2.80;;;21.50;99.90;;;;;;5032821;28;20029;-90
2022/08/05 04:50:48;;;;;;;7.30;3.10;;;21.50;99.90;;;;;;5032727;28;20041;-91
2022/08/05 04:53:16;;;;;;;7.70;3.03;;;21.50;99.90;;;;;;5032468;28;20049;-90
2022/08/05 04:55:45;;;;;;;7.05;2.97;;;21.40;99.90;;;;;;5048397;28;20033;-91
2022/08/05 04:58:14;;;;;;;5.63;2.88;;;21.40;99.90;;;;;;5042219;28;20029;-91
2022/08/05 05:00:42;;;;;;;9.68;3.22;;;21.40;99.90;;;;;;5036254;28;20076;-90
2022/08/05 05:03:09;;;;;;;8.60;3.25;;;21.40;99.90;;;;;;5036516;28;20029;-90
2022/08/05 05:05:36;;;;;;;6.88;2.70;;;21.40;99.90;;;;;;5035943;28;20117;-91
2022/08/05 05:08:06;;;;;;;6.32;2.65;;;21.40;99.90;;;;;;5036072;28;20491;-90
2022/08/05 05:10:41;;;;;;;6.15;2.58;;;21.40;99.90;;;;;;5044804;28;20121;-90
2022/08/05 05:13:14;;;;;;;6.97;3.00;;;21.40;99.90;;;;;;5052096;28;20369;-89
2022/08/05 05:15:41;;;;;;;9.07;3.22;;;21.40;99.90;;;;;;5048569;28;20109;-91
2022/08/05 05:18:08;;;;;;;8.18;2.63;;;21.40;99.90;;;;;;5034424;28;20101;-90
2022/08/05 05:20:34;;;;;;;9.40;2.97;;;21.40;99.90;;;;;;5052629;28;20029;-91
2022/08/05 05:23:03;;;;;;;7.63;2.97;;;21.40;99.90;;;;;;5036405;28;20056;-90
2022/08/05 05:25:32;;;;;;;7.13;2.97;;;21.40;99.90;;;;;;5036099;28;20025;-91
2022/08/05 05:27:58;;;;;;;7.13;2.75;;;21.30;99.90;;;;;;5032625;28;20025;-91
2022/08/05 05:30:24;;;;;;;7.50;2.92;;;21.40;99.90;;;;;;5009968;28;20041;-90
2022/08/05 05:32:50;;;;;;;5.32;2.38;;;21.40;99.90;;;;;;5052570;28;20381;-91
2022/08/05 05:35:15;;;;;;;6.35;2.50;;;21.40;99.90;;;;;;5035545;28;20065;-92
2022/08/05 05:37:51;;;;;;;5.20;2.83;;;21.40;99.90;;;;;;5035880;28;20119;-91
2022/08/05 05:40:19;;;;;;;5.55;2.20;;;21.30;99.90;;;;;;5039574;28;20036;-91
2022/08/05 05:42:45;;;;;;;7.50;2.45;;;21.40;99.90;;;;;;5035762;28;20022;-91
2022/08/05 05:45:14;;;;;;;6.93;2.97;;;21.40;99.90;;;;;;5035391;28;20025;-90
2022/08/05 05:47:40;;;;;;;7.82;2.80;;;21.30;99.90;;;;;;5035411;28;20021;-91
2022/08/05 05:50:12;;;;;;;7.95;2.53;;;21.40;99.90;;;;;;5035372;28;20041;-90
2022/08/05 05:52:38;;;;;;;11.73;3.30;;;21.40;99.90;;;;;;5035356;28;20049;-91
2022/08/05 05:55:07;;;;;;;6.15;2.63;;;21.40;99.90;;;;;;5048926;28;20108;-90
2022/08/05 05:57:36;;;;;;;8.43;2.50;;;21.40;99.90;;;;;;5032686;28;20097;-90
2022/08/05 06:00:11;;;;;;;6.35;2.58;;;21.30;99.90;;;;;;5051871;28;20030;-90
2022/08/05 06:02:39;;;;;;;12.07;2.92;;;21.30;99.90;;;;;;5034687;28;20032;-90
2022/08/05 06:05:24;;;;;;;5.68;2.80;;;21.30;99.90;;;;;;5034948;28;20518;-90
2022/08/05 06:07:49;;;;;;;8.55;2.60;;;21.30;99.90;;;;;;5035427;28;20068;-90
2022/08/05 06:10:15;;;;;;;7.70;2.75;;;21.30;99.90;;;;;;5034974;28;20026;-91
2022/08/05 06:12:41;;;;;;;9.13;2.90;;;21.30;99.90;;;;;;5022364;28;20037;-90
2022/08/05 06:15:07;;;;;;;6.60;2.63;;;21.30;99.90;;;;;;5035053;28;20033;-89
2022/08/05 06:17:34;;;;;;;4.47;2.25;;;21.30;99.90;;;;;;5015321;28;20022;-89
2022/08/05 06:20:00;;;;;;;5.78;2.10;;;21.30;99.90;;;;;;5035124;28;20026;-89
2022/08/05 06:22:33;;;;;;;9.20;2.60;;;21.30;99.90;;;;;;5051720;28;20025;-90
2022/08/05 06:25:07;;;;;;;7.30;2.40;;;21.30;99.90;;;;;;5051618;28;20037;-90
2022/08/05 06:27:35;;;;;;;6.80;2.35;;;21.30;99.90;;;;;;5034533;28;20197;-89
2022/08/05 06:30:02;;;;;;;8.13;2.65;;;21.30;99.90;;;;;;5034721;28;20561;-90
2022/08/05 06:32:28;;;;;;;9.88;3.05;;;21.30;99.90;;;;;;5035503;28;20017;-90
2022/08/05 06:34:57;;;;;;;7.00;2.80;;;21.30;99.90;;;;;;5034655;28;20064;-89
2022/08/05 06:37:27;;;;;;;7.22;2.20;;;21.30;99.90;;;;;;5035132;28;20370;-90
2022/08/05 06:39:52;;;;;;;9.65;2.85;;;21.30;99.90;;;;;;5035735;28;20075;-91
2022/08/05 06:42:18;;;;;;;12.77;3.08;;;21.30;99.90;;;;;;5034544;28;20021;-90
2022/08/05 06:44:55;;;;;;;9.52;3.70;;;21.30;99.90;;;;;;5034985;28;20026;-91
2022/08/05 06:47:21;;;;;;;5.55;2.10;;;21.30;99.90;;;;;;5019685;28;20025;-90
2022/08/05 06:49:49;;;;;;;7.57;2.60;;;21.30;99.90;;;;;;5042020;28;20026;-91
2022/08/05 06:52:15;;;;;;;4.88;2.17;;;21.30;99.90;;;;;;5033580;28;20041;-91
2022/08/05 06:54:43;;;;;;;6.85;2.00;;;21.30;99.90;;;;;;5034496;28;20029;-92
2022/08/05 06:57:13;;;;;;;5.28;1.88;;;21.30;99.90;;;;;;5035833;28;20030;-90
2022/08/05 06:59:42;;;;;;;5.22;2.20;;;21.30;99.90;;;;;;5034935;28;20078;-91
2022/08/05 07:02:08;;;;;;;7.28;2.40;;;21.30;99.90;;;;;;5048343;28;20072;-90
2022/08/05 07:04:34;;;;;;;6.90;2.35;;;21.30;99.90;;;;;;5031020;28;20025;-89
2022/08/05 07:06:59;;;;;;;28.05;3.20;;;21.30;99.90;;;;;;5033979;28;20053;-90
2022/08/05 07:09:27;;;;;;;4.18;2.00;;;21.30;99.90;;;;;;5038238;28;20025;-89
2022/08/05 07:11:54;;;;;;;6.22;2.10;;;21.30;99.90;;;;;;5050387;28;20061;-89
2022/08/05 07:17:05;;;;;;;7.50;1.98;;;21.30;99.90;;;;;;5031226;28;20040;-73
2022/08/05 07:19:31;;;;;;;4.55;1.63;;;21.30;99.90;;;;;;5032745;28;20025;-74
2022/08/05 07:21:57;;;;;;;4.60;1.83;;;21.30;99.90;;;;;;5033232;28;20053;-73
2022/08/05 07:24:23;;;;;;;5.82;1.90;;;21.30;99.90;;;;;;5033098;28;20493;-73
2022/08/05 07:26:49;;;;;;;5.22;1.95;;;21.30;99.90;;;;;;5032557;28;20493;-73
2022/08/05 07:29:14;;;;;;;6.47;2.17;;;21.30;99.90;;;;;;5033134;28;20025;-74
2022/08/05 07:31:41;;;;;;;6.20;2.20;;;21.30;99.90;;;;;;5032623;28;20160;-73
2022/08/05 07:34:07;;;;;;;3.92;1.80;;;21.30;99.90;;;;;;5033213;28;20034;-73
2022/08/05 07:36:33;;;;;;;4.70;1.90;;;21.30;99.90;;;;;;5033122;28;20115;-74
2022/08/05 07:39:00;;;;;;;5.07;1.90;;;21.30;99.90;;;;;;5033044;28;20458;-73
2022/08/05 07:41:26;;;;;;;4.00;1.90;;;21.30;99.90;;;;;;5032900;28;20034;-73
2022/08/05 07:43:53;;;;;;;5.72;1.77;;;21.30;99.90;;;;;;5032651;28;20060;-73
2022/08/05 07:46:19;;;;;;;5.65;1.80;;;21.40;99.90;;;;;;5048253;28;20086;-74
2022/08/05 07:48:44;;;;;;;4.93;2.03;;;21.40;99.90;;;;;;5034886;28;20029;-74
2022/08/05 07:51:10;;;;;;;4.57;1.80;;;21.40;99.90;;;;;;5030831;28;20394;-74
2022/08/05 07:53:36;;;;;;;5.88;1.80;;;21.40;99.90;;;;;;5032388;28;20037;-74
2022/08/05 07:56:03;;;;;;;7.90;1.73;;;21.40;99.90;;;;;;5031485;28;20116;-73
2022/08/05 07:58:29;;;;;;;3.55;1.70;;;21.40;99.90;;;;;;5030876;28;20036;-74
2022/08/05 08:00:55;;;;;;;3.50;1.50;;;21.40;99.90;;;;;;5032270;28;20021;-73
2022/08/05 08:03:20;;;;;;;6.47;1.85;;;21.40;99.90;;;;;;5032509;28;20095;-73
2022/08/05 08:05:49;;;;;;;3.70;1.35;;;21.40;99.90;;;;;;5032157;28;20045;-73
2022/08/05 08:08:16;;;;;;;5.28;1.55;;;21.50;99.90;;;;;;5032497;28;20028;-73
2022/08/05 08:10:41;;;;;;;3.97;1.40;;;21.50;99.90;;;;;;5047724;28;20033;-74
2022/08/05 08:13:07;;;;;;;5.18;1.70;;;21.50;99.90;;;;;;5031175;28;20491;-73
2022/08/05 08:15:32;;;;;;;3.20;1.40;;;21.50;99.90;;;;;;5047994;28;20029;-73
2022/08/05 08:17:58;;;;;;;5.75;1.60;;;21.50;99.90;;;;;;5031923;28;20072;-73
2022/08/05 08:20:25;;;;;;;5.53;1.33;;;21.60;99.90;;;;;;5032476;28;20087;-73
2022/08/05 08:22:53;;;;;;;3.60;1.13;;;21.60;99.90;;;;;;5030548;28;20025;-73
2022/08/05 08:25:19;;;;;;;3.55;1.30;;;21.60;99.90;;;;;;5031306;28;20024;-73
2022/08/05 08:27:44;;;;;;;5.07;1.52;;;21.60;99.90;;;;;;5032021;28;20053;-74
2022/08/05 08:30:10;;;;;;;4.53;1.48;;;21.70;99.70;;;;;;5050946;28;20048;-73
2022/08/05 08:32:36;;;;;;;2.83;1.20;;;21.70;99.60;;;;;;5036323;28;20427;-74
2022/08/05 08:35:03;;;;;;;2.90;1.10;;;21.70;99.40;;;;;;5035837;28;20025;-73
2022/08/05 08:37:28;;;;;;;2.85;1.30;;;21.70;99.30;;;;;;5035101;28;20466;-73
2022/08/05 08:39:54;;;;;;;3.58;1.30;;;21.80;99.30;;;;;;5035831;28;20030;-74
2022/08/05 08:42:21;;;;;;;3.35;1.30;;;21.80;99.20;;;;;;5036201;28;20119;-74
2022/08/05 08:44:48;;;;;;;4.45;1.20;;;21.80;99.20;;;;;;5035532;28;20099;-74
2022/08/05 08:47:14;;;;;;;2.90;1.25;;;21.90;99.10;;;;;;5051036;28;20026;-73
2022/08/05 08:49:44;;;;;;;3.65;1.20;;;21.90;99.00;;;;;;5035341;28;20033;-76
2022/08/05 08:52:18;;;;;;;3.42;1.60;;;22.00;99.00;;;;;;5050303;28;20049;-74
2022/08/05 08:54:46;;;;;;;2.63;1.40;;;22.00;98.90;;;;;;5035473;28;20029;-74
2022/08/05 08:57:12;;;;;;;3.38;1.27;;;22.00;98.90;;;;;;5035153;28;20025;-73
2022/08/05 08:59:38;;;;;;;2.15;1.10;;;22.00;98.60;;;;;;5050620;28;20040;-73
2022/08/05 09:02:05;;;;;;;3.08;1.13;;;22.00;98.40;;;;;;5034673;28;20036;-74
2022/08/05 09:04:37;;;;;;;4.53;1.38;;;22.00;98.30;;;;;;5035085;28;20018;-74
2022/08/05 09:07:05;;;;;;;4.47;1.40;;;22.10;98.40;;;;;;5034847;28;20450;-75
2022/08/05 09:09:31;;;;;;;3.42;1.20;;;22.10;98.30;;;;;;5035025;28;20017;-75
2022/08/05 09:11:57;;;;;;;2.80;1.25;;;22.00;98.10;;;;;;5034973;28;20021;-75
2022/08/05 09:14:23;;;;;;;5.05;1.50;;;22.00;98.00;;;;;;5050446;28;20128;-75
2022/08/05 09:16:49;;;;;;;5.20;1.40;;;22.00;98.10;;;;;;5033915;28;20476;-75
2022/08/05 09:19:14;;;;;;;4.35;1.50;;;22.00;98.10;;;;;;5033857;28;20029;-75
2022/08/05 09:21:40;;;;;;;2.13;1.30;;;22.10;98.20;;;;;;5034982;28;20104;-75
2022/08/05 09:24:07;;;;;;;3.15;1.40;;;22.10;98.20;;;;;;5034788;28;20354;-74
2022/08/05 09:26:36;;;;;;;3.38;1.33;;;22.10;98.30;;;;;;5034733;28;20035;-75
2022/08/05 09:29:05;;;;;;;2.50;1.20;;;22.10;98.20;;;;;;5035324;28;20036;-74
2022/08/05 09:31:32;;;;;;;2.67;1.17;;;22.10;98.20;;;;;;5034887;28;20034;-75
2022/08/05 09:34:08;;;;;;;2.50;1.08;;;22.10;98.10;;;;;;5035130;28;20029;-75
2022/08/05 09:36:43;;;;;;;2.08;0.95;;;22.10;97.80;;;;;;5034822;28;20465;-75
2022/08/05 09:39:12;;;;;;;1.83;0.80;;;22.10;97.40;;;;;;5034955;28;20028;-77
2022/08/05 09:41:58;;;;;;;2.45;0.60;;;22.10;97.10;;;;;;5033949;28;20537;-77
2022/08/05 09:44:39;;;;;;;1.30;0.80;;;22.20;96.90;;;;;;5034975;28;20047;-77
2022/08/05 09:47:09;;;;;;;0.98;0.70;;;22.20;96.60;;;;;;5034321;28;20022;-77
2022/08/05 09:49:39;;;;;;;2.33;1.17;;;22.20;96.50;;;;;;5034672;28;20096;-77
2022/08/05 09:52:26;;;;;;;3.28;0.90;;;22.30;96.40;;;;;;5034180;28;20045;-77
2022/08/05 09:55:00;;;;;;;1.48;0.80;;;22.30;96.00;;;;;;5034551;28;20520;-77
2022/08/05 09:57:31;;;;;;;1.80;0.70;;;22.40;95.70;;;;;;5033606;28;20014;-77
2022/08/05 10:00:03;;;;;;;2.08;0.65;;;22.40;95.50;;;;;;5033204;28;20393;-77
2022/08/05 10:02:34;;;;;;;0.90;0.60;;;22.40;95.10;;;;;;5034148;28;20025;-77
2022/08/05 10:05:08;;;;;;;;;;;22.50;94.80;;;;;;5034100;28;20052;-77
2022/08/05 10:07:43;;;;;;;1.45;0.60;;;22.60;94.70;;;;;;5033314;28;20007;-77
2022/08/05 10:10:09;;;;;;;1.05;0.50;;;22.60;94.30;;;;;;5033912;28;20040;-77
2022/08/05 10:12:51;;;;;;;0.40;0.40;;;22.70;93.50;;;;;;5034358;28;20033;-77
2022/08/05 10:15:20;;;;;;;1.70;0.60;;;22.80;93.10;;;;;;5034508;28;20022;-77
2022/08/05 10:18:07;;;;;;;1.30;0.70;;;22.80;92.90;;;;;;5033645;28;20021;-78
2022/08/05 10:20:41;;;;;;;4.07;0.70;;;22.90;93.00;;;;;;5033042;28;20028;-77
2022/08/05 10:23:08;;;;;;;2.17;0.47;;;22.90;92.80;;;;;;5033949;28;20061;-79
2022/08/05 10:25:34;;;;;;;1.27;0.50;;;23.00;92.90;;;;;;5049243;28;20040;-80
2022/08/05 10:28:00;;;;;;;1.52;0.63;;;23.00;92.50;;;;;;5032339;28;20022;-80
2022/08/05 10:30:26;;;;;;;1.38;0.50;;;23.10;92.20;;;;;;5049509;28;20088;-80
2022/08/05 10:32:54;;;;;;;1.67;0.70;;;23.10;92.00;;;;;;5033932;28;20029;-80
2022/08/05 10:35:19;;;;;;;1.70;0.60;;;23.20;91.60;;;;;;5032828;28;20017;-80
2022/08/05 10:37:46;;;;;;;2.88;0.90;;;23.30;91.30;;;;;;5032645;28;20036;-79
2022/08/05 10:40:53;;;;;;;2.55;0.60;;;23.30;91.10;;;;;;5032565;28;20029;-76
2022/08/05 10:43:46;;;;;;;3.17;0.65;;;23.30;91.30;;;;;;5049351;28;20083;-77
2022/08/05 10:46:18;;;;;;;2.90;0.77;;;23.40;91.40;;;;;;5033973;28;20029;-76
2022/08/05 10:48:56;;;;;;;0.60;0.40;;;23.40;91.10;;;;;;5045483;28;20026;-78
2022/08/05 10:51:22;;;;;;;2.28;0.45;;;23.50;90.90;;;;;;5026172;28;20056;-79
2022/08/05 10:53:50;;;;;;;2.25;0.68;;;23.50;90.40;;;;;;5033460;28;20026;-81
2022/08/05 10:56:22;;;;;;;3.17;0.68;;;23.50;90.10;;;;;;5049194;28;20087;-79
2022/08/05 10:58:54;;;;;;;2.22;0.50;;;23.50;89.50;;;;;;5031945;28;20017;-81
2022/08/05 11:01:46;;;;;;;1.63;0.57;;;23.60;88.90;;;;;;5048711;28;20056;-79
2022/08/05 11:04:20;;;;;;;1.08;0.60;;;23.60;87.70;;;;;;5033082;28;20053;-79
2022/08/05 11:07:05;;;;;;;1.95;0.60;;;23.70;86.80;;;;;;5031698;28;20028;-77
2022/08/05 11:09:45;;;;;;;2.05;0.60;;;23.70;86.50;;;;;;5029652;28;20025;-78
2022/08/05 11:12:23;;;;;;;1.75;0.80;;;23.80;86.10;;;;;;5031896;28;20031;-80
2022/08/05 11:15:21;;;;;;;1.77;0.68;;;23.90;86.10;;;;;;5031328;28;20026;-80
2022/08/05 11:18:04;;;;;;;3.03;0.60;;;23.90;85.60;;;;;;5031668;28;20533;-80
2022/08/05 11:20:36;;;;;;;2.70;0.68;;;24.00;85.00;;;;;;5033608;28;20033;-79
2022/08/05 11:23:26;;;;;;;2.10;0.60;;;24.00;84.60;;;;;;5031716;28;20017;-79
2022/08/05 11:26:07;;;;;;;1.02;0.45;;;24.10;84.80;;;;;;5031772;28;20112;-79
2022/08/05 11:28:33;;;;;;;1.25;0.50;;;24.20;84.30;;;;;;5048448;28;20075;-79
2022/08/05 11:31:01;;;;;;;3.25;0.77;;;24.20;83.60;;;;;;5033019;28;20037;-80
2022/08/05 11:33:31;;;;;;;3.83;0.60;;;24.20;83.50;;;;;;5048552;28;20025;-79
2022/08/05 11:36:05;;;;;;;1.60;0.75;;;24.30;82.50;;;;;;5031576;28;20021;-78
2022/08/05 11:38:43;;;;;;;3.60;0.70;;;24.30;81.70;;;;;;5032873;28;20461;-79
2022/08/05 11:41:27;;;;;;;1.30;0.70;;;24.30;81.70;;;;;;5048163;28;20079;-79
2022/08/05 11:44:00;;;;;;;0.98;0.45;;;24.30;81.70;;;;;;5031528;28;20079;-79
2022/08/05 11:46:33;;;;;;;1.52;0.60;;;24.30;80.50;;;;;;5031753;28;20370;-79
2022/08/05 11:49:00;;;;;;;1.83;0.60;;;24.30;79.60;;;;;;5048095;28;20075;-79
2022/08/05 11:51:28;;;;;;;2.53;0.70;;;24.30;79.30;;;;;;5030988;28;20409;-78
2022/08/05 11:53:54;;;;;;;1.95;0.60;;;24.30;79.10;;;;;;5031017;28;20075;-79
2022/08/05 11:56:21;;;;;;;2.45;0.68;;;24.40;78.30;;;;;;5032861;28;20030;-79
2022/08/05 11:58:48;;;;;;;1.27;0.50;;;24.40;77.00;;;;;;5047972;28;20028;-77
2022/08/05 12:01:17;;;;;;;1.50;0.40;;;24.40;76.30;;;;;;5031193;28;20037;-75
2022/08/05 12:03:55;;;;;;;1.27;0.70;;;24.40;75.70;;;;;;5030870;28;20025;-75
2022/08/05 12:06:25;;;;;;;2.75;0.70;;;24.50;76.00;;;;;;5032675;28;20022;-79
2022/08/05 12:08:53;;;;;;;1.85;0.60;;;24.50;75.60;;;;;;5032922;28;20466;-78
2022/08/05 12:11:30;;;;;;;3.20;0.75;;;24.50;74.80;;;;;;5031054;28;20067;-78
2022/08/05 12:14:07;;;;;;;2.95;0.57;;;24.60;75.00;;;;;;5047729;28;20080;-78
2022/08/05 12:16:38;;;;;;;1.40;0.57;;;24.60;74.00;;;;;;5032547;28;20037;-78
2022/08/05 12:19:04;;;;;;;6.72;0.60;;;24.60;73.40;;;;;;5031053;28;20053;-78
2022/08/05 12:21:35;;;;;;;1.95;0.80;;;24.70;72.90;;;;;;5032424;28;20091;-78
2022/08/05 12:24:07;;;;;;;2.50;0.50;;;24.70;72.10;;;;;;5031023;28;20049;-78
2022/08/05 12:26:34;;;;;;;0.73;0.40;;;24.70;70.60;;;;;;5032280;28;20022;-75
2022/08/05 12:29:00;;;;;;;1.08;0.40;;;24.80;70.30;;;;;;5031095;28;20022;-78
2022/08/05 12:31:26;;;;;;;4.82;0.95;;;24.80;69.70;;;;;;5032239;28;20030;-76
2022/08/05 12:33:53;;;;;;;3.92;0.80;;;24.80;68.90;;;;;;5032149;28;20041;-76
2022/08/05 12:36:20;;;;;;;1.45;0.40;;;24.80;67.60;;;;;;5031785;28;20147;-76
2022/08/05 12:38:46;;;;;;;0.98;0.68;;;24.80;66.20;;;;;;5047884;28;20030;-76
2022/08/05 12:41:13;;;;;;;0.98;0.57;;;24.90;65.60;;;;;;5047727;28;20057;-76
2022/08/05 12:43:53;;;;;;;1.23;0.43;;;24.90;65.50;;;;;;5047476;28;20026;-76
2022/08/05 12:46:21;;;;;;;3.60;0.52;;;24.90;65.30;;;;;;5032086;28;20022;-76
2022/08/05 12:48:54;;;;;;;1.90;0.50;;;24.90;65.50;;;;;;5032276;28;20017;-75
2022/08/05 12:51:20;;;;;;;0.40;0.30;;;25.00;66.00;;;;;;5030525;28;20049;-77
2022/08/05 12:53:46;;;;;;;2.30;0.52;;;25.10;66.60;;;;;;5047716;28;20473;-76
2022/08/05 12:56:21;;;;;;;1.52;0.60;;;25.20;67.20;;;;;;5030797;28;20477;-76
2022/08/05 12:59:14;;;;;;;3.88;0.73;;;25.20;66.40;;;;;;5032087;28;20024;-76
2022/08/05 13:01:42;;;;;;;2.45;0.70;;;25.30;65.70;;;;;;5032194;28;20105;-76
2022/08/05 13:04:08;;;;;;;1.52;0.50;;;25.30;65.60;;;;;;5031769;28;20105;-76